sensor_id;sensor_type;location;lat;lon;timestamp;temperature;humidity
41939;DHT22;23057;48.554;14.454;2023-03-31T00:00:24;7.10;99.90
41939;DHT22;23057;48.554;14.454;2023-03-31T00:02:56;7.10;99.90
41939;DHT22;23057;48.554;14.454;2023-03-31T00:05:27;7.00;99.90
41939;DHT22;23057;48.554;14.454;2023-03-31T00:07:58;7.00;99.90
41939;DHT22;23057;48.554;14.454;2023-03-31T00:10:32;6.90;99.90
41939;DHT22;23057;48.554;14.454;2023-03-31T00:13:04;6.90;99.90
41939;DHT22;23057;48.554;14.454;2023-03-31T00:15:34;6.90;99.90
41939;DHT22;23057;48.554;14.454;2023-03-31T00:18:05;6.80;99.90
41939;DHT22;23057;48.554;14.454;2023-03-31T00:20:36;6.80;99.90
41939;DHT22;23057;48.554;14.454;2023-03-31T00:23:07;6.70;99.90
41939;DHT22;23057;48.554;14.454;2023-03-31T00:25:40;6.60;99.90
41939;DHT22;23057;48.554;14.454;2023-03-31T00:28:11;6.60;99.90
41939;DHT22;23057;48.554;14.454;2023-03-31T00:30:41;6.50;99.90
41939;DHT22;23057;48.554;14.454;2023-03-31T00:33:12;6.50;99.90
41939;DHT22;23057;48.554;14.454;2023-03-31T00:35:43;6.40;99.90
41939;DHT22;23057;48.554;14.454;2023-03-31T00:38:15;6.30;99.90
41939;DHT22;23057;48.554;14.454;2023-03-31T00:40:46;6.30;99.90
41939;DHT22;23057;48.554;14.454;2023-03-31T00:43:26;6.20;99.90
41939;DHT22;23057;48.554;14.454;2023-03-31T00:46:16;6.20;99.90
41939;DHT22;23057;48.554;14.454;2023-03-31T00:48:55;6.10;99.90
41939;DHT22;23057;48.554;14.454;2023-03-31T00:51:28;6.10;99.90
41939;DHT22;23057;48.554;14.454;2023-03-31T00:54:04;5.90;99.90
41939;DHT22;23057;48.554;14.454;2023-03-31T00:56:38;5.80;99.90
41939;DHT22;23057;48.554;14.454;2023-03-31T00:59:14;5.80;99.90
41939;DHT22;23057;48.554;14.454;2023-03-31T01:01:45;5.70;99.90
41939;DHT22;23057;48.554;14.454;2023-03-31T01:04:19;5.60;99.90
41939;DHT22;23057;48.554;14.454;2023-03-31T01:06:58;5.50;99.90
41939;DHT22;23057;48.554;14.454;2023-03-31T01:09:39;5.60;99.90
41939;DHT22;23057;48.554;14.454;2023-03-31T01:12:11;5.60;99.90
41939;DHT22;23057;48.554;14.454;2023-03-31T01:14:44;5.70;99.90
41939;DHT22;23057;48.554;14.454;2023-03-31T01:17:17;5.80;99.90
41939;DHT22;23057;48.554;14.454;2023-03-31T01:41:40;5.60;99.90
41939;DHT22;23057;48.554;14.454;2023-03-31T01:47:25;5.60;99.90
41939;DHT22;23057;48.554;14.454;2023-03-31T01:56:29;5.50;99.90
41939;DHT22;23057;48.554;14.454;2023-03-31T01:59:09;5.40;99.90
41939;DHT22;23057;48.554;14.454;2023-03-31T02:02:00;5.30;99.90
41939;DHT22;23057;48.554;14.454;2023-03-31T02:04:59;5.20;99.90
41939;DHT22;23057;48.554;14.454;2023-03-31T02:07:55;5.30;99.90
41939;DHT22;23057;48.554;14.454;2023-03-31T02:10:36;5.20;99.90
41939;DHT22;23057;48.554;14.454;2023-03-31T02:13:10;4.90;99.90
41939;DHT22;23057;48.554;14.454;2023-03-31T02:15:46;4.90;99.90
41939;DHT22;23057;48.554;14.454;2023-03-31T02:18:25;4.90;99.90
41939;DHT22;23057;48.554;14.454;2023-03-31T02:20:59;4.90;99.90
41939;DHT22;23057;48.554;14.454;2023-03-31T02:23:30;4.90;99.90
41939;DHT22;23057;48.554;14.454;2023-03-31T02:26:05;4.90;99.90
41939;DHT22;23057;48.554;14.454;2023-03-31T02:28:42;4.90;99.90
41939;DHT22;23057;48.554;14.454;2023-03-31T02:33:58;4.90;99.90
41939;DHT22;23057;48.554;14.454;2023-03-31T02:36:30;4.90;99.90
41939;DHT22;23057;48.554;14.454;2023-03-31T02:39:07;4.80;99.90
41939;DHT22;23057;48.554;14.454;2023-03-31T02:41:43;4.70;99.90
41939;DHT22;23057;48.554;14.454;2023-03-31T02:44:14;4.70;99.90
41939;DHT22;23057;48.554;14.454;2023-03-31T02:46:47;4.70;99.90
41939;DHT22;23057;48.554;14.454;2023-03-31T02:49:19;4.50;99.90
41939;DHT22;23057;48.554;14.454;2023-03-31T03:00:53;4.50;99.90
41939;DHT22;23057;48.554;14.454;2023-03-31T03:15:55;4.10;99.90
41939;DHT22;23057;48.554;14.454;2023-03-31T03:18:35;4.00;99.90
41939;DHT22;23057;48.554;14.454;2023-03-31T03:21:06;4.10;99.90
41939;DHT22;23057;48.554;14.454;2023-03-31T03:23:37;4.20;99.90
41939;DHT22;23057;48.554;14.454;2023-03-31T03:26:07;4.10;99.90
41939;DHT22;23057;48.554;14.454;2023-03-31T03:28:38;4.30;99.90
41939;DHT22;23057;48.554;14.454;2023-03-31T03:31:09;4.30;99.90
41939;DHT22;23057;48.554;14.454;2023-03-31T03:33:40;4.20;99.90
41939;DHT22;23057;48.554;14.454;2023-03-31T03:36:12;4.30;99.90
41939;DHT22;23057;48.554;14.454;2023-03-31T03:38:42;4.30;99.90
41939;DHT22;23057;48.554;14.454;2023-03-31T03:41:13;4.20;99.90
41939;DHT22;23057;48.554;14.454;2023-03-31T03:43:44;4.10;99.90
41939;DHT22;23057;48.554;14.454;2023-03-31T03:46:15;4.00;99.90
41939;DHT22;23057;48.554;14.454;2023-03-31T03:48:46;4.20;99.90
41939;DHT22;23057;48.554;14.454;2023-03-31T03:51:16;4.30;99.90
41939;DHT22;23057;48.554;14.454;2023-03-31T03:53:47;4.30;99.90
41939;DHT22;23057;48.554;14.454;2023-03-31T03:56:18;4.20;99.90
41939;DHT22;23057;48.554;14.454;2023-03-31T03:58:48;4.10;99.90
41939;DHT22;23057;48.554;14.454;2023-03-31T04:01:20;3.90;99.90
41939;DHT22;23057;48.554;14.454;2023-03-31T04:03:50;3.80;99.90
41939;DHT22;23057;48.554;14.454;2023-03-31T04:06:22;3.80;99.90
41939;DHT22;23057;48.554;14.454;2023-03-31T04:08:53;3.60;99.90
41939;DHT22;23057;48.554;14.454;2023-03-31T04:11:24;3.70;99.90
41939;DHT22;23057;48.554;14.454;2023-03-31T04:13:55;3.90;99.90
41939;DHT22;23057;48.554;14.454;2023-03-31T04:16:26;3.90;99.90
41939;DHT22;23057;48.554;14.454;2023-03-31T04:18:57;3.90;99.90
41939;DHT22;23057;48.554;14.454;2023-03-31T04:21:28;4.10;99.90
41939;DHT22;23057;48.554;14.454;2023-03-31T04:24:04;4.10;99.90
41939;DHT22;23057;48.554;14.454;2023-03-31T04:26:35;4.10;99.90
41939;DHT22;23057;48.554;14.454;2023-03-31T04:29:12;4.00;99.90
41939;DHT22;23057;48.554;14.454;2023-03-31T04:31:45;4.00;99.90
41939;DHT22;23057;48.554;14.454;2023-03-31T04:34:16;4.20;99.90
41939;DHT22;23057;48.554;14.454;2023-03-31T04:36:47;4.20;99.90
41939;DHT22;23057;48.554;14.454;2023-03-31T04:39:18;4.40;99.90
41939;DHT22;23057;48.554;14.454;2023-03-31T04:41:59;4.40;99.90
41939;DHT22;23057;48.554;14.454;2023-03-31T04:44:30;4.50;99.90
41939;DHT22;23057;48.554;14.454;2023-03-31T04:47:01;4.60;99.90
41939;DHT22;23057;48.554;14.454;2023-03-31T04:49:32;4.00;99.90
41939;DHT22;23057;48.554;14.454;2023-03-31T04:52:03;4.00;99.90
41939;DHT22;23057;48.554;14.454;2023-03-31T04:54:34;3.90;99.90
41939;DHT22;23057;48.554;14.454;2023-03-31T04:57:05;3.80;99.90
41939;DHT22;23057;48.554;14.454;2023-03-31T04:59:36;3.80;99.90
41939;DHT22;23057;48.554;14.454;2023-03-31T05:02:06;3.90;99.90
41939;DHT22;23057;48.554;14.454;2023-03-31T05:04:37;4.00;99.90
41939;DHT22;23057;48.554;14.454;2023-03-31T05:07:08;4.10;99.90
41939;DHT22;23057;48.554;14.454;2023-03-31T05:09:38;4.70;99.90
41939;DHT22;23057;48.554;14.454;2023-03-31T05:12:09;5.50;99.90
41939;DHT22;23057;48.554;14.454;2023-03-31T05:14:40;5.90;99.90
41939;DHT22;23057;48.554;14.454;2023-03-31T05:17:11;6.40;99.90
41939;DHT22;23057;48.554;14.454;2023-03-31T05:19:42;6.20;99.90
41939;DHT22;23057;48.554;14.454;2023-03-31T05:22:13;5.80;99.90
41939;DHT22;23057;48.554;14.454;2023-03-31T05:24:49;5.60;99.90
41939;DHT22;23057;48.554;14.454;2023-03-31T05:27:20;5.40;99.90
41939;DHT22;23057;48.554;14.454;2023-03-31T05:29:51;5.30;99.90
41939;DHT22;23057;48.554;14.454;2023-03-31T05:32:21;5.30;99.90
41939;DHT22;23057;48.554;14.454;2023-03-31T05:34:52;5.30;99.90
41939;DHT22;23057;48.554;14.454;2023-03-31T05:37:27;5.30;99.90
41939;DHT22;23057;48.554;14.454;2023-03-31T05:39:58;5.20;99.90
41939;DHT22;23057;48.554;14.454;2023-03-31T05:42:29;5.20;99.90
41939;DHT22;23057;48.554;14.454;2023-03-31T05:45:00;5.20;99.90
41939;DHT22;23057;48.554;14.454;2023-03-31T05:47:31;5.10;99.90
41939;DHT22;23057;48.554;14.454;2023-03-31T05:50:02;5.00;99.90
41939;DHT22;23057;48.554;14.454;2023-03-31T05:52:36;5.20;99.90
41939;DHT22;23057;48.554;14.454;2023-03-31T05:55:07;5.30;99.90
41939;DHT22;23057;48.554;14.454;2023-03-31T05:57:39;5.60;99.90
41939;DHT22;23057;48.554;14.454;2023-03-31T06:00:10;6.40;99.90
41939;DHT22;23057;48.554;14.454;2023-03-31T06:02:41;6.90;99.90
41939;DHT22;23057;48.554;14.454;2023-03-31T06:05:12;6.70;99.90
41939;DHT22;23057;48.554;14.454;2023-03-31T06:07:42;6.90;99.90
41939;DHT22;23057;48.554;14.454;2023-03-31T06:10:13;6.80;99.90
41939;DHT22;23057;48.554;14.454;2023-03-31T06:12:44;6.90;99.90
41939;DHT22;23057;48.554;14.454;2023-03-31T06:15:15;6.90;99.90
41939;DHT22;23057;48.554;14.454;2023-03-31T06:17:46;6.40;99.90
41939;DHT22;23057;48.554;14.454;2023-03-31T06:20:17;6.20;99.90
41939;DHT22;23057;48.554;14.454;2023-03-31T06:22:47;6.20;99.90
41939;DHT22;23057;48.554;14.454;2023-03-31T06:25:18;6.30;99.90
41939;DHT22;23057;48.554;14.454;2023-03-31T06:27:49;6.50;99.90
41939;DHT22;23057;48.554;14.454;2023-03-31T06:30:20;6.80;99.90
41939;DHT22;23057;48.554;14.454;2023-03-31T06:32:51;6.60;99.90
41939;DHT22;23057;48.554;14.454;2023-03-31T06:35:22;6.70;99.90
41939;DHT22;23057;48.554;14.454;2023-03-31T06:37:53;6.70;99.90
41939;DHT22;23057;48.554;14.454;2023-03-31T06:40:23;6.90;99.90
41939;DHT22;23057;48.554;14.454;2023-03-31T06:42:54;6.80;99.90
41939;DHT22;23057;48.554;14.454;2023-03-31T06:45:25;6.80;99.90
41939;DHT22;23057;48.554;14.454;2023-03-31T06:47:56;6.90;99.90
41939;DHT22;23057;48.554;14.454;2023-03-31T06:50:27;6.80;99.90
41939;DHT22;23057;48.554;14.454;2023-03-31T06:52:57;6.80;99.90
41939;DHT22;23057;48.554;14.454;2023-03-31T06:55:29;6.70;99.90
41939;DHT22;23057;48.554;14.454;2023-03-31T06:58:01;6.80;99.90
41939;DHT22;23057;48.554;14.454;2023-03-31T07:00:33;6.70;99.90
41939;DHT22;23057;48.554;14.454;2023-03-31T07:03:04;6.70;99.90
41939;DHT22;23057;48.554;14.454;2023-03-31T07:05:35;6.70;99.90
41939;DHT22;23057;48.554;14.454;2023-03-31T07:08:06;6.80;99.90
41939;DHT22;23057;48.554;14.454;2023-03-31T07:10:38;6.80;99.90
41939;DHT22;23057;48.554;14.454;2023-03-31T07:13:08;6.80;99.90
41939;DHT22;23057;48.554;14.454;2023-03-31T07:15:39;6.80;99.90
41939;DHT22;23057;48.554;14.454;2023-03-31T07:18:10;6.80;99.90
41939;DHT22;23057;48.554;14.454;2023-03-31T07:20:42;6.80;99.90
41939;DHT22;23057;48.554;14.454;2023-03-31T07:23:13;6.90;99.90
41939;DHT22;23057;48.554;14.454;2023-03-31T07:25:45;7.00;99.90
41939;DHT22;23057;48.554;14.454;2023-03-31T07:28:16;7.10;99.90
41939;DHT22;23057;48.554;14.454;2023-03-31T07:30:47;7.10;99.90
41939;DHT22;23057;48.554;14.454;2023-03-31T07:33:18;7.20;99.90
41939;DHT22;23057;48.554;14.454;2023-03-31T07:35:49;7.20;99.90
41939;DHT22;23057;48.554;14.454;2023-03-31T07:38:20;7.20;99.90
41939;DHT22;23057;48.554;14.454;2023-03-31T07:40:50;7.20;99.90
41939;DHT22;23057;48.554;14.454;2023-03-31T07:43:21;7.10;99.90
41939;DHT22;23057;48.554;14.454;2023-03-31T07:45:52;7.10;99.90
41939;DHT22;23057;48.554;14.454;2023-03-31T07:48:23;7.20;99.90
41939;DHT22;23057;48.554;14.454;2023-03-31T07:50:57;7.30;99.90
41939;DHT22;23057;48.554;14.454;2023-03-31T07:53:29;7.30;99.90
41939;DHT22;23057;48.554;14.454;2023-03-31T07:56:00;7.30;99.90
41939;DHT22;23057;48.554;14.454;2023-03-31T07:58:30;7.20;99.90
41939;DHT22;23057;48.554;14.454;2023-03-31T08:01:01;7.20;99.90
41939;DHT22;23057;48.554;14.454;2023-03-31T08:03:33;7.20;99.90
41939;DHT22;23057;48.554;14.454;2023-03-31T08:06:04;7.30;99.90
41939;DHT22;23057;48.554;14.454;2023-03-31T08:08:35;7.30;99.90
41939;DHT22;23057;48.554;14.454;2023-03-31T08:11:07;7.20;99.90
41939;DHT22;23057;48.554;14.454;2023-03-31T08:13:39;7.20;99.90
41939;DHT22;23057;48.554;14.454;2023-03-31T08:16:10;7.20;99.90
41939;DHT22;23057;48.554;14.454;2023-03-31T08:18:40;7.20;99.90
41939;DHT22;23057;48.554;14.454;2023-03-31T08:21:11;7.20;99.90
41939;DHT22;23057;48.554;14.454;2023-03-31T08:23:42;7.20;99.90
41939;DHT22;23057;48.554;14.454;2023-03-31T08:26:14;7.30;99.90
41939;DHT22;23057;48.554;14.454;2023-03-31T08:28:53;7.40;99.90
41939;DHT22;23057;48.554;14.454;2023-03-31T08:31:24;7.50;99.90
41939;DHT22;23057;48.554;14.454;2023-03-31T08:33:55;7.70;99.90
41939;DHT22;23057;48.554;14.454;2023-03-31T08:36:26;8.10;99.90
41939;DHT22;23057;48.554;14.454;2023-03-31T08:38:57;8.30;99.90
41939;DHT22;23057;48.554;14.454;2023-03-31T08:44:42;8.50;99.90
41939;DHT22;23057;48.554;14.454;2023-03-31T08:47:28;8.60;99.90
41939;DHT22;23057;48.554;14.454;2023-03-31T08:50:17;8.90;99.90
41939;DHT22;23057;48.554;14.454;2023-03-31T08:55:48;9.00;99.90
41939;DHT22;23057;48.554;14.454;2023-03-31T08:58:26;8.80;99.90
41939;DHT22;23057;48.554;14.454;2023-03-31T09:04:06;8.50;99.90
41939;DHT22;23057;48.554;14.454;2023-03-31T09:07:39;8.40;99.90
41939;DHT22;23057;48.554;14.454;2023-03-31T09:10:54;8.40;99.90
41939;DHT22;23057;48.554;14.454;2023-03-31T09:16:34;8.10;99.90
41939;DHT22;23057;48.554;14.454;2023-03-31T09:19:40;8.00;99.90
41939;DHT22;23057;48.554;14.454;2023-03-31T09:22:23;8.10;99.90
41939;DHT22;23057;48.554;14.454;2023-03-31T09:25:02;8.10;99.90
41939;DHT22;23057;48.554;14.454;2023-03-31T09:27:38;8.10;99.90
41939;DHT22;23057;48.554;14.454;2023-03-31T09:30:15;8.10;99.90
41939;DHT22;23057;48.554;14.454;2023-03-31T09:33:17;8.10;99.90
41939;DHT22;23057;48.554;14.454;2023-03-31T09:36:01;8.30;99.90
41939;DHT22;23057;48.554;14.454;2023-03-31T09:38:43;8.50;99.90
41939;DHT22;23057;48.554;14.454;2023-03-31T09:41:16;8.60;99.90
41939;DHT22;23057;48.554;14.454;2023-03-31T09:43:50;8.60;99.90
41939;DHT22;23057;48.554;14.454;2023-03-31T09:46:32;8.60;99.90
41939;DHT22;23057;48.554;14.454;2023-03-31T09:49:12;8.60;99.90
41939;DHT22;23057;48.554;14.454;2023-03-31T09:51:50;8.60;99.90
41939;DHT22;23057;48.554;14.454;2023-03-31T09:54:36;8.70;99.90
41939;DHT22;23057;48.554;14.454;2023-03-31T09:57:15;8.70;99.90
41939;DHT22;23057;48.554;14.454;2023-03-31T10:00:00;8.70;99.90
41939;DHT22;23057;48.554;14.454;2023-03-31T10:02:52;8.70;99.90
41939;DHT22;23057;48.554;14.454;2023-03-31T10:10:44;9.50;99.90
41939;DHT22;23057;48.554;14.454;2023-03-31T10:13:27;9.60;99.90
41939;DHT22;23057;48.554;14.454;2023-03-31T10:16:10;9.60;99.90
41939;DHT22;23057;48.554;14.454;2023-03-31T10:18:49;9.80;99.90
41939;DHT22;23057;48.554;14.454;2023-03-31T10:21:22;9.50;99.90
41939;DHT22;23057;48.554;14.454;2023-03-31T10:24:08;9.70;99.90
41939;DHT22;23057;48.554;14.454;2023-03-31T10:26:40;9.90;99.90
41939;DHT22;23057;48.554;14.454;2023-03-31T10:29:11;9.80;99.90
41939;DHT22;23057;48.554;14.454;2023-03-31T10:31:47;9.70;99.90
41939;DHT22;23057;48.554;14.454;2023-03-31T10:34:18;9.70;99.90
41939;DHT22;23057;48.554;14.454;2023-03-31T10:36:51;9.80;99.90
41939;DHT22;23057;48.554;14.454;2023-03-31T10:39:29;9.80;99.90
41939;DHT22;23057;48.554;14.454;2023-03-31T10:42:02;9.70;99.90
41939;DHT22;23057;48.554;14.454;2023-03-31T10:44:37;9.70;99.90
41939;DHT22;23057;48.554;14.454;2023-03-31T10:49:42;9.70;99.90
41939;DHT22;23057;48.554;14.454;2023-03-31T10:52:20;9.60;99.90
41939;DHT22;23057;48.554;14.454;2023-03-31T10:54:56;9.50;99.90
41939;DHT22;23057;48.554;14.454;2023-03-31T10:58:15;9.40;99.90
41939;DHT22;23057;48.554;14.454;2023-03-31T11:00:31;9.40;99.90
41939;DHT22;23057;48.554;14.454;2023-03-31T11:09:33;9.30;99.90
41939;DHT22;23057;48.554;14.454;2023-03-31T11:12:29;9.40;99.90
41939;DHT22;23057;48.554;14.454;2023-03-31T11:15:10;9.70;99.90
41939;DHT22;23057;48.554;14.454;2023-03-31T11:24:22;10.50;99.90
41939;DHT22;23057;48.554;14.454;2023-03-31T11:41:49;12.30;99.90
41939;DHT22;23057;48.554;14.454;2023-03-31T11:44:27;12.30;99.90
41939;DHT22;23057;48.554;14.454;2023-03-31T11:47:13;12.40;99.90
41939;DHT22;23057;48.554;14.454;2023-03-31T11:49:59;11.90;99.90
41939;DHT22;23057;48.554;14.454;2023-03-31T11:53:05;12.30;99.90
41939;DHT22;23057;48.554;14.454;2023-03-31T11:55:47;12.50;95.80
41939;DHT22;23057;48.554;14.454;2023-03-31T11:58:26;12.60;1.00
41939;DHT22;23057;48.554;14.454;2023-03-31T12:04:07;12.70;1.00
41939;DHT22;23057;48.554;14.454;2023-03-31T12:07:05;12.70;1.00
41939;DHT22;23057;48.554;14.454;2023-03-31T12:10:14;12.60;99.90
41939;DHT22;23057;48.554;14.454;2023-03-31T12:16:04;13.10;99.90
41939;DHT22;23057;48.554;14.454;2023-03-31T12:19:01;13.40;99.90
41939;DHT22;23057;48.554;14.454;2023-03-31T12:21:46;13.40;1.00
41939;DHT22;23057;48.554;14.454;2023-03-31T12:24:24;13.70;99.90
41939;DHT22;23057;48.554;14.454;2023-03-31T12:29:42;13.10;99.90
41939;DHT22;23057;48.554;14.454;2023-03-31T12:32:29;13.50;99.90
41939;DHT22;23057;48.554;14.454;2023-03-31T12:35:07;13.80;99.90
41939;DHT22;23057;48.554;14.454;2023-03-31T12:50:25;13.20;99.90
41939;DHT22;23057;48.554;14.454;2023-03-31T12:53:43;13.20;99.90
41939;DHT22;23057;48.554;14.454;2023-03-31T12:56:27;13.50;99.90
41939;DHT22;23057;48.554;14.454;2023-03-31T12:59:41;13.20;99.90
41939;DHT22;23057;48.554;14.454;2023-03-31T13:04:45;12.60;99.90
41939;DHT22;23057;48.554;14.454;2023-03-31T13:09:56;12.30;99.90
41939;DHT22;23057;48.554;14.454;2023-03-31T13:12:29;12.30;1.00
41939;DHT22;23057;48.554;14.454;2023-03-31T13:15:03;12.50;1.00
41939;DHT22;23057;48.554;14.454;2023-03-31T13:17:35;12.50;1.00
41939;DHT22;23057;48.554;14.454;2023-03-31T13:20:16;12.20;1.00
41939;DHT22;23057;48.554;14.454;2023-03-31T13:23:03;12.20;1.00
41939;DHT22;23057;48.554;14.454;2023-03-31T13:25:55;12.10;1.00
41939;DHT22;23057;48.554;14.454;2023-03-31T13:28:38;12.10;1.00
41939;DHT22;23057;48.554;14.454;2023-03-31T13:31:12;12.10;1.00
41939;DHT22;23057;48.554;14.454;2023-03-31T13:33:46;12.10;57.60
41939;DHT22;23057;48.554;14.454;2023-03-31T13:50:31;9.30;99.90
41939;DHT22;23057;48.554;14.454;2023-03-31T13:53:22;9.40;99.90
41939;DHT22;23057;48.554;14.454;2023-03-31T14:06:10;8.70;56.60
41939;DHT22;23057;48.554;14.454;2023-03-31T14:09:26;8.70;99.90
41939;DHT22;23057;48.554;14.454;2023-03-31T14:12:17;8.80;99.90
41939;DHT22;23057;48.554;14.454;2023-03-31T14:15:16;8.90;99.90
41939;DHT22;23057;48.554;14.454;2023-03-31T14:17:50;8.90;99.90
41939;DHT22;23057;48.554;14.454;2023-03-31T14:25:49;9.00;99.90
41939;DHT22;23057;48.554;14.454;2023-03-31T14:32:12;8.90;99.90
41939;DHT22;23057;48.554;14.454;2023-03-31T14:35:33;8.80;99.90
41939;DHT22;23057;48.554;14.454;2023-03-31T14:38:13;8.90;99.90
41939;DHT22;23057;48.554;14.454;2023-03-31T14:40:50;8.90;99.90
41939;DHT22;23057;48.554;14.454;2023-03-31T14:43:26;9.10;99.90
41939;DHT22;23057;48.554;14.454;2023-03-31T14:46:06;9.10;99.90
41939;DHT22;23057;48.554;14.454;2023-03-31T14:48:43;9.00;99.90
41939;DHT22;23057;48.554;14.454;2023-03-31T14:51:17;9.00;99.90
41939;DHT22;23057;48.554;14.454;2023-03-31T14:53:56;8.90;99.90
41939;DHT22;23057;48.554;14.454;2023-03-31T14:56:32;8.90;99.90
41939;DHT22;23057;48.554;14.454;2023-03-31T14:59:08;8.80;99.90
41939;DHT22;23057;48.554;14.454;2023-03-31T15:01:39;8.80;99.90
41939;DHT22;23057;48.554;14.454;2023-03-31T15:04:11;8.80;99.90
41939;DHT22;23057;48.554;14.454;2023-03-31T15:06:47;8.80;99.90
41939;DHT22;23057;48.554;14.454;2023-03-31T15:09:25;8.90;99.90
41939;DHT22;23057;48.554;14.454;2023-03-31T15:11:59;8.80;99.90
41939;DHT22;23057;48.554;14.454;2023-03-31T15:14:35;9.00;99.90
41939;DHT22;23057;48.554;14.454;2023-03-31T15:17:23;9.00;99.90
41939;DHT22;23057;48.554;14.454;2023-03-31T15:19:59;9.00;99.90
41939;DHT22;23057;48.554;14.454;2023-03-31T15:22:34;9.00;99.90
41939;DHT22;23057;48.554;14.454;2023-03-31T15:25:05;9.10;99.90
41939;DHT22;23057;48.554;14.454;2023-03-31T15:28:04;9.00;99.90
41939;DHT22;23057;48.554;14.454;2023-03-31T15:30:39;9.10;99.90
41939;DHT22;23057;48.554;14.454;2023-03-31T15:33:15;9.10;99.90
41939;DHT22;23057;48.554;14.454;2023-03-31T15:35:55;9.00;99.90
41939;DHT22;23057;48.554;14.454;2023-03-31T15:38:27;9.00;99.90
41939;DHT22;23057;48.554;14.454;2023-03-31T15:41:01;9.00;99.90
41939;DHT22;23057;48.554;14.454;2023-03-31T15:46:18;9.00;99.90
41939;DHT22;23057;48.554;14.454;2023-03-31T15:49:19;8.90;99.90
41939;DHT22;23057;48.554;14.454;2023-03-31T15:51:53;8.80;99.90
41939;DHT22;23057;48.554;14.454;2023-03-31T15:57:13;8.60;99.90
41939;DHT22;23057;48.554;14.454;2023-03-31T15:59:49;8.70;99.90
41939;DHT22;23057;48.554;14.454;2023-03-31T16:02:26;8.70;99.90
41939;DHT22;23057;48.554;14.454;2023-03-31T16:08:14;8.50;99.90
41939;DHT22;23057;48.554;14.454;2023-03-31T16:10:54;8.50;99.90
41939;DHT22;23057;48.554;14.454;2023-03-31T16:13:36;8.40;99.90
41939;DHT22;23057;48.554;14.454;2023-03-31T16:16:14;8.30;99.90
41939;DHT22;23057;48.554;14.454;2023-03-31T16:18:50;8.20;99.90
41939;DHT22;23057;48.554;14.454;2023-03-31T16:21:40;8.30;99.90
41939;DHT22;23057;48.554;14.454;2023-03-31T16:24:19;8.30;99.90
41939;DHT22;23057;48.554;14.454;2023-03-31T16:27:06;8.30;99.90
41939;DHT22;23057;48.554;14.454;2023-03-31T16:29:38;8.30;99.90
41939;DHT22;23057;48.554;14.454;2023-03-31T16:32:13;8.20;99.90
41939;DHT22;23057;48.554;14.454;2023-03-31T16:34:57;8.20;99.90
41939;DHT22;23057;48.554;14.454;2023-03-31T16:37:34;8.10;99.90
41939;DHT22;23057;48.554;14.454;2023-03-31T16:40:05;8.00;99.90
41939;DHT22;23057;48.554;14.454;2023-03-31T16:42:37;8.00;99.90
41939;DHT22;23057;48.554;14.454;2023-03-31T16:45:08;7.90;99.90
41939;DHT22;23057;48.554;14.454;2023-03-31T16:47:39;7.90;99.90
41939;DHT22;23057;48.554;14.454;2023-03-31T16:50:10;7.80;99.90
41939;DHT22;23057;48.554;14.454;2023-03-31T16:52:40;7.70;99.90
41939;DHT22;23057;48.554;14.454;2023-03-31T16:55:12;7.70;99.90
41939;DHT22;23057;48.554;14.454;2023-03-31T16:57:42;7.70;99.90
41939;DHT22;23057;48.554;14.454;2023-03-31T17:00:13;7.60;99.90
41939;DHT22;23057;48.554;14.454;2023-03-31T17:02:44;7.60;99.90
41939;DHT22;23057;48.554;14.454;2023-03-31T17:05:16;7.60;99.90
41939;DHT22;23057;48.554;14.454;2023-03-31T17:07:47;7.60;99.90
41939;DHT22;23057;48.554;14.454;2023-03-31T17:10:18;7.50;99.90
41939;DHT22;23057;48.554;14.454;2023-03-31T17:12:50;7.50;99.90
41939;DHT22;23057;48.554;14.454;2023-03-31T17:15:21;7.50;99.90
41939;DHT22;23057;48.554;14.454;2023-03-31T17:17:52;7.40;99.90
41939;DHT22;23057;48.554;14.454;2023-03-31T17:20:24;7.30;99.90
41939;DHT22;23057;48.554;14.454;2023-03-31T17:22:55;7.30;99.90
41939;DHT22;23057;48.554;14.454;2023-03-31T17:25:26;7.30;99.90
41939;DHT22;23057;48.554;14.454;2023-03-31T17:27:57;7.20;99.90
41939;DHT22;23057;48.554;14.454;2023-03-31T17:30:30;7.20;99.90
41939;DHT22;23057;48.554;14.454;2023-03-31T17:33:04;7.10;99.90
41939;DHT22;23057;48.554;14.454;2023-03-31T17:35:35;7.10;99.90
41939;DHT22;23057;48.554;14.454;2023-03-31T17:38:07;7.10;99.90
41939;DHT22;23057;48.554;14.454;2023-03-31T17:40:40;7.30;99.90
41939;DHT22;23057;48.554;14.454;2023-03-31T17:43:11;7.60;99.90
41939;DHT22;23057;48.554;14.454;2023-03-31T17:45:43;7.30;99.90
41939;DHT22;23057;48.554;14.454;2023-03-31T17:48:13;7.10;99.90
41939;DHT22;23057;48.554;14.454;2023-03-31T17:50:45;7.10;99.90
41939;DHT22;23057;48.554;14.454;2023-03-31T17:53:16;7.10;99.90
41939;DHT22;23057;48.554;14.454;2023-03-31T17:55:47;7.20;99.90
41939;DHT22;23057;48.554;14.454;2023-03-31T17:58:18;7.20;99.90
41939;DHT22;23057;48.554;14.454;2023-03-31T18:00:51;7.20;99.90
41939;DHT22;23057;48.554;14.454;2023-03-31T18:03:22;7.20;99.90
41939;DHT22;23057;48.554;14.454;2023-03-31T18:05:53;7.20;99.90
41939;DHT22;23057;48.554;14.454;2023-03-31T18:08:24;7.20;99.90
41939;DHT22;23057;48.554;14.454;2023-03-31T18:10:55;7.10;99.90
41939;DHT22;23057;48.554;14.454;2023-03-31T18:13:26;7.10;99.90
41939;DHT22;23057;48.554;14.454;2023-03-31T18:15:57;7.10;99.90
41939;DHT22;23057;48.554;14.454;2023-03-31T18:18:28;7.00;99.90
41939;DHT22;23057;48.554;14.454;2023-03-31T18:21:02;7.00;99.90
41939;DHT22;23057;48.554;14.454;2023-03-31T18:23:35;6.90;99.90
41939;DHT22;23057;48.554;14.454;2023-03-31T18:26:07;7.10;99.90
41939;DHT22;23057;48.554;14.454;2023-03-31T18:28:41;7.00;99.90
41939;DHT22;23057;48.554;14.454;2023-03-31T18:31:11;7.00;99.90
41939;DHT22;23057;48.554;14.454;2023-03-31T18:33:42;6.90;99.90
41939;DHT22;23057;48.554;14.454;2023-03-31T18:36:14;6.90;99.90
41939;DHT22;23057;48.554;14.454;2023-03-31T18:38:48;6.90;99.90
41939;DHT22;23057;48.554;14.454;2023-03-31T18:41:21;6.90;99.90
41939;DHT22;23057;48.554;14.454;2023-03-31T18:43:52;6.90;99.90
41939;DHT22;23057;48.554;14.454;2023-03-31T18:46:24;6.80;99.90
41939;DHT22;23057;48.554;14.454;2023-03-31T18:48:55;6.90;99.90
41939;DHT22;23057;48.554;14.454;2023-03-31T18:51:25;6.80;99.90
41939;DHT22;23057;48.554;14.454;2023-03-31T18:53:56;6.90;99.90
41939;DHT22;23057;48.554;14.454;2023-03-31T18:56:27;6.90;99.90
41939;DHT22;23057;48.554;14.454;2023-03-31T18:58:58;7.10;99.90
41939;DHT22;23057;48.554;14.454;2023-03-31T19:01:28;7.10;99.90
41939;DHT22;23057;48.554;14.454;2023-03-31T19:04:01;7.20;99.90
41939;DHT22;23057;48.554;14.454;2023-03-31T19:06:32;7.20;99.90
41939;DHT22;23057;48.554;14.454;2023-03-31T19:09:03;7.20;99.90
41939;DHT22;23057;48.554;14.454;2023-03-31T19:11:34;7.30;99.90
41939;DHT22;23057;48.554;14.454;2023-03-31T19:14:06;7.30;99.90